createdAt,value
2018-05-16T00:00:16.603Z,36.57
2018-05-16T00:02:45.593Z,36.90
2018-05-16T00:05:14.577Z,36.30
2018-05-16T00:07:43.542Z,38.93
2018-05-16T00:10:12.508Z,40.30
2018-05-16T00:12:41.537Z,37.40
2018-05-16T00:15:10.518Z,35.93
2018-05-16T00:17:39.493Z,36.13
2018-05-16T00:20:08.463Z,39.70
2018-05-16T00:22:37.456Z,40.13
2018-05-16T00:25:06.471Z,39.27
2018-05-16T00:27:35.475Z,37.50
2018-05-16T00:30:04.448Z,34.97
2018-05-16T00:32:33.448Z,39.73
2018-05-16T00:35:02.407Z,38.77
2018-05-16T00:37:31.447Z,39.53
2018-05-16T00:40:00.416Z,36.97
2018-05-16T00:42:29.389Z,40.13
2018-05-16T00:44:58.357Z,38.63
2018-05-16T00:47:27.335Z,42.43
2018-05-16T00:49:56.385Z,40.40
2018-05-16T00:52:25.343Z,35.97
2018-05-16T00:54:54.323Z,39.47
2018-05-16T00:57:23.294Z,39.13
2018-05-16T00:59:52.257Z,39.40
2018-05-16T01:02:21.311Z,39.40
2018-05-16T01:04:50.333Z,42.07
2018-05-16T01:07:19.312Z,40.20
2018-05-16T01:09:48.285Z,44.13
2018-05-16T01:12:17.263Z,46.40
2018-05-16T01:14:46.330Z,45.13
2018-05-16T01:17:15.308Z,46.77
2018-05-16T01:19:44.294Z,48.17
2018-05-16T01:22:13.269Z,46.47
2018-05-16T01:24:42.239Z,44.77
2018-05-16T01:27:11.274Z,44.90
2018-05-16T01:29:40.234Z,46.37
2018-05-16T01:32:09.228Z,44.40
2018-05-16T01:34:38.190Z,40.13
2018-05-16T01:37:07.148Z,46.17
2018-05-16T01:39:36.179Z,43.67
2018-05-16T01:42:05.173Z,42.73
2018-05-16T01:44:34.181Z,45.97
2018-05-16T01:47:03.173Z,43.57
2018-05-16T01:49:32.157Z,44.70
2018-05-16T01:52:01.182Z,41.97
2018-05-16T01:54:30.178Z,43.03
2018-05-16T01:56:59.158Z,41.80
2018-05-16T01:59:28.135Z,40.77
2018-05-16T02:01:57.132Z,41.43
2018-05-16T02:04:26.147Z,43.07
2018-05-16T02:06:55.165Z,41.57
2018-05-16T02:09:24.164Z,41.43
2018-05-16T02:11:53.142Z,43.23
2018-05-16T02:14:22.145Z,45.57
2018-05-16T02:16:51.176Z,43.43
2018-05-16T02:19:20.158Z,43.63
2018-05-16T02:21:49.138Z,43.43
2018-05-16T02:24:18.128Z,42.87
2018-05-16T02:26:47.108Z,40.10
2018-05-16T02:29:16.129Z,39.00
2018-05-16T02:31:45.115Z,38.43
2018-05-16T02:34:14.088Z,36.53
2018-05-16T02:36:43.131Z,41.80
2018-05-16T02:39:12.102Z,41.77
2018-05-16T02:41:41.131Z,41.60
2018-05-16T02:44:10.125Z,44.63
2018-05-16T02:46:39.118Z,45.00
2018-05-16T02:49:08.118Z,44.43
2018-05-16T02:51:37.098Z,48.03
2018-05-16T02:54:06.077Z,46.23
2018-05-16T02:56:35.060Z,47.63
2018-05-16T02:59:04.121Z,44.30
2018-05-16T03:01:33.108Z,44.73
2018-05-16T03:04:02.104Z,41.47
2018-05-16T03:06:31.078Z,42.07
2018-05-16T03:09:00.045Z,41.07
2018-05-16T03:11:29.085Z,43.47
2018-05-16T03:13:58.046Z,42.30
2018-05-16T03:16:27.027Z,44.10
2018-05-16T03:18:56.009Z,48.10
2018-05-16T03:21:25.027Z,50.53
2018-05-16T03:23:54.048Z,49.83
2018-05-16T03:26:23.039Z,49.47
2018-05-16T03:28:52.020Z,49.17
2018-05-16T03:31:21.018Z,47.77
2018-05-16T03:33:49.999Z,49.57
2018-05-16T03:36:19.031Z,48.57
2018-05-16T03:38:48.014Z,49.97
2018-05-16T03:41:16.993Z,48.93
2018-05-16T03:43:45.972Z,46.43
2018-05-16T03:46:14.980Z,48.10
2018-05-16T03:48:44.001Z,45.80
2018-05-16T03:51:12.994Z,47.40
2018-05-16T03:53:41.983Z,46.57
2018-05-16T03:56:10.966Z,47.87
2018-05-16T03:58:45.750Z,43.73
2018-05-16T04:01:20.612Z,45.53
2018-05-16T04:03:55.397Z,44.80
2018-05-16T04:06:24.374Z,46.17
2018-05-16T04:08:53.345Z,47.57
2018-05-16T04:11:22.347Z,53.10
2018-05-16T04:13:51.429Z,53.43
2018-05-16T04:16:20.426Z,50.70
2018-05-16T04:18:49.456Z,46.10
2018-05-16T04:21:18.459Z,45.23
2018-05-16T04:23:47.449Z,47.80
2018-05-16T04:26:16.441Z,47.07
2018-05-16T04:28:45.511Z,44.43
2018-05-16T04:31:14.488Z,47.23
2018-05-16T04:33:43.471Z,50.67
2018-05-16T04:36:12.465Z,49.23
2018-05-16T04:38:41.453Z,50.03
2018-05-16T04:41:10.475Z,50.30
2018-05-16T04:43:39.489Z,49.20
2018-05-16T04:46:08.488Z,48.13
2018-05-16T04:48:37.483Z,49.10
2018-05-16T04:51:06.480Z,48.73
2018-05-16T04:53:35.535Z,47.43
2018-05-16T04:56:04.525Z,52.20
2018-05-16T04:58:33.497Z,50.33
2018-05-16T05:01:02.542Z,46.50
2018-05-16T05:03:31.512Z,46.30
2018-05-16T05:06:00.568Z,41.57
2018-05-16T05:08:29.568Z,41.80
2018-05-16T05:10:58.547Z,40.33
2018-05-16T05:13:27.525Z,39.53
2018-05-16T05:15:56.503Z,35.33
2018-05-16T05:18:25.541Z,35.30
2018-05-16T05:20:55.275Z,33.10
2018-05-16T05:23:24.217Z,32.80
2018-05-16T05:25:53.189Z,28.37
2018-05-16T05:28:22.181Z,27.73
2018-05-16T05:30:51.191Z,23.47
2018-05-16T05:33:20.143Z,24.40
2018-05-16T05:35:49.146Z,23.33
2018-05-16T05:38:18.098Z,22.93
2018-05-16T05:40:47.059Z,20.33
2018-05-16T05:43:16.049Z,22.70
2018-05-16T05:45:44.997Z,22.43
2018-05-16T05:48:13.956Z,23.47
2018-05-16T05:50:42.907Z,26.17
2018-05-16T05:53:11.874Z,27.00
2018-05-16T05:55:40.871Z,27.67
2018-05-16T05:58:09.850Z,26.00
2018-05-16T06:00:38.785Z,26.07
2018-05-16T06:03:07.817Z,30.47
2018-05-16T06:05:36.811Z,32.17
2018-05-16T06:08:05.772Z,34.13
2018-05-16T06:10:34.725Z,35.93
2018-05-16T06:13:03.668Z,34.57
2018-05-16T06:15:32.669Z,35.47
2018-05-16T06:18:01.613Z,35.43
2018-05-16T06:20:30.590Z,38.87
2018-05-16T06:23:00.003Z,39.63
2018-05-16T06:25:29.501Z,40.97
2018-05-16T06:27:58.483Z,43.73
2018-05-16T06:30:27.438Z,41.07
2018-05-16T06:32:56.507Z,41.60
2018-05-16T06:35:25.502Z,41.30
2018-05-16T06:37:54.568Z,40.50
2018-05-16T06:40:24.094Z,37.30
2018-05-16T06:42:53.568Z,35.60
2018-05-16T06:45:22.509Z,33.53
2018-05-16T06:47:51.473Z,34.87
2018-05-16T06:50:20.460Z,34.97
2018-05-16T06:52:49.446Z,33.33
2018-05-16T06:55:18.410Z,34.67
2018-05-16T06:57:47.402Z,33.00
2018-05-16T07:00:16.917Z,33.07
2018-05-16T07:02:46.005Z,40.57
2018-05-16T07:05:15.003Z,34.27
2018-05-16T07:07:43.967Z,35.17
2018-05-16T07:10:12.991Z,36.80
2018-05-16T07:12:42.011Z,36.20
2018-05-16T07:15:10.996Z,35.07
2018-05-16T07:17:40.081Z,35.63
2018-05-16T07:20:09.500Z,36.27
2018-05-16T07:22:38.441Z,38.77
2018-05-16T07:25:07.394Z,35.03
2018-05-16T07:27:36.343Z,35.83
2018-05-16T07:30:05.321Z,34.23
2018-05-16T07:32:34.307Z,34.47
2018-05-16T07:35:03.277Z,33.73
2018-05-16T07:37:32.220Z,33.30
2018-05-16T07:40:01.171Z,35.70
2018-05-16T07:42:30.188Z,35.07
2018-05-16T07:44:59.167Z,34.53
2018-05-16T07:47:28.181Z,34.70
2018-05-16T07:49:57.135Z,34.47
2018-05-16T07:52:26.163Z,33.00
2018-05-16T07:54:55.159Z,33.30
2018-05-16T07:57:24.119Z,32.10
2018-05-16T07:59:53.071Z,33.23
2018-05-16T08:02:22.766Z,31.67
2018-05-16T08:04:51.725Z,30.43
2018-05-16T08:07:20.742Z,32.23
2018-05-16T08:09:49.690Z,33.23
2018-05-16T08:12:18.703Z,29.03
2018-05-16T08:14:47.618Z,29.20
2018-05-16T08:17:17.149Z,27.93
2018-05-16T08:19:46.158Z,29.50
2018-05-16T08:22:15.111Z,29.30
2018-05-16T08:24:44.794Z,27.77
2018-05-16T08:27:13.737Z,28.87
2018-05-16T08:29:42.687Z,27.23
2018-05-16T08:32:11.795Z,27.60
2018-05-16T08:34:41.519Z,26.83
2018-05-16T08:37:10.511Z,27.00
2018-05-16T08:39:39.466Z,26.07
2018-05-16T08:42:08.821Z,28.43
2018-05-16T08:44:37.819Z,29.43
2018-05-16T08:47:06.861Z,29.23
2018-05-16T08:49:35.839Z,27.10
2018-05-16T08:52:05.210Z,27.00
2018-05-16T08:54:34.170Z,27.07
2018-05-16T08:57:03.121Z,26.53
2018-05-16T08:59:32.114Z,26.30
2018-05-16T09:02:01.172Z,26.33
2018-05-16T09:04:30.126Z,24.53
2018-05-16T09:06:59.894Z,24.57
2018-05-16T09:09:28.876Z,23.80
2018-05-16T09:11:58.152Z,25.03
2018-05-16T09:14:27.110Z,24.73
2018-05-16T09:16:56.055Z,22.43
2018-05-16T09:19:25.000Z,22.27
2018-05-16T09:21:54.074Z,20.40
2018-05-16T09:24:23.072Z,19.60
2018-05-16T09:26:52.051Z,20.20
2018-05-16T09:29:21.015Z,22.07
2018-05-16T09:31:49.966Z,23.30
2018-05-16T09:34:19.754Z,22.23
2018-05-16T09:36:49.343Z,19.73
2018-05-16T09:39:18.339Z,18.77
2018-05-16T09:41:47.365Z,21.30
2018-05-16T09:44:16.310Z,19.90
2018-05-16T09:46:45.290Z,21.73
2018-05-16T09:49:14.229Z,22.00
2018-05-16T09:51:43.309Z,20.23
2018-05-16T09:54:12.321Z,20.33
2018-05-16T09:56:41.302Z,30.00
2018-05-16T09:59:10.307Z,26.67
2018-05-16T10:01:39.335Z,24.10
2018-05-16T10:04:08.363Z,22.40
2018-05-16T10:06:37.366Z,20.87
2018-05-16T10:09:06.326Z,21.60
2018-05-16T10:11:35.265Z,21.07
2018-05-16T10:14:04.246Z,18.87
2018-05-16T10:16:33.198Z,21.80
2018-05-16T10:19:02.139Z,23.57
2018-05-16T10:21:31.125Z,21.97
2018-05-16T10:24:00.123Z,22.40
2018-05-16T10:26:29.070Z,23.67
2018-05-16T10:28:58.433Z,24.87
2018-05-16T10:31:27.409Z,24.10
2018-05-16T10:33:56.721Z,23.07
2018-05-16T10:36:25.680Z,20.53
2018-05-16T10:38:54.638Z,22.40
2018-05-16T10:41:23.584Z,20.07
2018-05-16T10:43:52.529Z,19.80
2018-05-16T10:46:21.529Z,20.70
2018-05-16T10:48:50.475Z,20.67
2018-05-16T10:51:19.497Z,21.47
2018-05-16T10:53:48.445Z,20.50
2018-05-16T10:56:17.500Z,21.93
2018-05-16T10:58:46.488Z,20.53
2018-05-16T11:01:16.106Z,21.53
2018-05-16T11:03:45.721Z,20.57
2018-05-16T11:06:14.661Z,18.13
2018-05-16T11:08:43.614Z,18.87
2018-05-16T11:11:12.571Z,18.50
2018-05-16T11:13:41.532Z,18.50
2018-05-16T11:16:10.517Z,18.83
2018-05-16T11:18:39.461Z,19.50
2018-05-16T11:21:08.404Z,18.40
2018-05-16T11:23:37.359Z,18.87
2018-05-16T11:26:06.400Z,17.77
2018-05-16T11:28:35.385Z,19.50
2018-05-16T11:31:05.168Z,19.37
2018-05-16T11:33:34.122Z,19.13
2018-05-16T11:36:03.061Z,18.60
2018-05-16T11:38:32.021Z,18.43
2018-05-16T11:41:01.017Z,16.97
2018-05-16T11:43:29.957Z,14.73
2018-05-16T11:45:58.949Z,14.43
2018-05-16T11:48:27.877Z,15.80
2018-05-16T11:50:56.831Z,14.33
2018-05-16T11:53:25.827Z,15.13
2018-05-16T11:55:54.786Z,14.50
2018-05-16T11:58:23.741Z,13.30
2018-05-16T12:00:52.704Z,14.23
2018-05-16T12:03:21.690Z,14.43
2018-05-16T12:05:50.744Z,14.27
2018-05-16T12:08:19.703Z,15.13
2018-05-16T12:10:48.718Z,14.20
2018-05-16T12:13:17.680Z,14.17
2018-05-16T12:15:46.633Z,14.77
2018-05-16T12:18:15.617Z,14.80
2018-05-16T12:20:44.679Z,13.53
2018-05-16T12:23:13.625Z,15.30
2018-05-16T12:25:43.387Z,14.13
2018-05-16T12:28:13.062Z,15.33
2018-05-16T12:30:42.597Z,17.03
2018-05-16T12:33:11.566Z,16.43
2018-05-16T12:35:40.561Z,16.83
2018-05-16T12:38:10.336Z,17.47
2018-05-16T12:40:39.995Z,15.87
2018-05-16T12:43:14.873Z,16.80
2018-05-16T12:45:43.915Z,16.20
2018-05-16T12:48:13.837Z,16.23
2018-05-16T12:50:42.791Z,15.27
2018-05-16T12:53:11.749Z,15.87
2018-05-16T12:55:40.804Z,14.80
2018-05-16T12:58:10.749Z,14.17
2018-05-16T13:00:39.767Z,14.67
2018-05-16T13:03:08.750Z,15.57
2018-05-16T13:05:37.709Z,14.40
2018-05-16T13:08:06.668Z,13.33
2018-05-16T13:10:35.627Z,14.00
2018-05-16T13:13:04.710Z,12.83
2018-05-16T13:15:33.661Z,11.80
2018-05-16T13:18:02.712Z,12.77
2018-05-16T13:20:31.603Z,12.20
2018-05-16T13:23:00.603Z,10.97
2018-05-16T13:25:29.563Z,13.30
2018-05-16T13:27:58.519Z,11.67
2018-05-16T13:30:27.486Z,11.53
2018-05-16T13:32:56.435Z,9.60
2018-05-16T13:35:25.417Z,9.10
2018-05-16T13:37:54.380Z,9.20
2018-05-16T13:40:23.403Z,10.30
2018-05-16T13:42:52.397Z,8.83
2018-05-16T13:45:21.403Z,9.97
2018-05-16T13:47:50.393Z,9.57
2018-05-16T13:50:19.341Z,9.10
2018-05-16T13:52:48.342Z,9.43
2018-05-16T13:55:17.303Z,8.33
2018-05-16T13:57:46.251Z,8.13
2018-05-16T14:00:15.324Z,8.50
2018-05-16T14:02:44.281Z,7.83
2018-05-16T14:05:13.231Z,8.23
2018-05-16T14:07:42.174Z,8.30
2018-05-16T14:10:11.293Z,8.20
2018-05-16T14:12:40.280Z,8.63
2018-05-16T14:15:09.339Z,9.07
2018-05-16T14:17:38.291Z,8.70
2018-05-16T14:20:07.296Z,8.40
2018-05-16T14:22:36.279Z,8.10
2018-05-16T14:25:05.232Z,8.10
2018-05-16T14:27:34.178Z,9.77
2018-05-16T14:30:03.124Z,10.33
2018-05-16T14:32:32.265Z,9.40
2018-05-16T14:35:01.352Z,9.20
2018-05-16T14:37:30.337Z,8.67
2018-05-16T14:39:59.503Z,7.53
2018-05-16T14:42:28.459Z,5.40
2018-05-16T14:44:57.393Z,5.40
2018-05-16T14:47:26.384Z,5.87
2018-05-16T14:49:55.340Z,4.70
2018-05-16T14:52:24.292Z,3.83
2018-05-16T14:54:53.242Z,4.37
2018-05-16T14:57:22.179Z,6.23
2018-05-16T14:59:51.921Z,6.73
2018-05-16T15:02:20.862Z,7.20
2018-05-16T15:04:49.830Z,6.17
2018-05-16T15:07:18.791Z,6.20
2018-05-16T15:09:48.349Z,6.17
2018-05-16T15:12:18.189Z,7.33
2018-05-16T15:14:47.213Z,7.83
2018-05-16T15:17:16.467Z,8.60
2018-05-16T15:19:46.023Z,9.63
2018-05-16T15:22:15.222Z,12.53
2018-05-16T15:24:44.209Z,12.33
2018-05-16T15:27:13.151Z,12.67
2018-05-16T15:29:42.125Z,11.50
2018-05-16T15:32:11.079Z,12.17
2018-05-16T15:34:40.027Z,11.27
2018-05-16T15:37:09.051Z,13.67
2018-05-16T15:39:38.007Z,11.93
2018-05-16T15:42:06.954Z,13.77
2018-05-16T15:44:35.908Z,13.07
2018-05-16T15:47:05.731Z,14.60
2018-05-16T15:49:34.741Z,14.10
2018-05-16T15:52:03.721Z,15.40
2018-05-16T15:54:32.665Z,15.67
2018-05-16T15:57:01.611Z,14.90
2018-05-16T15:59:31.245Z,15.67
2018-05-16T16:02:00.240Z,17.37
2018-05-16T16:04:29.184Z,16.90
2018-05-16T16:06:58.239Z,18.57
2018-05-16T16:09:27.195Z,20.23
2018-05-16T16:11:56.862Z,20.07
2018-05-16T16:14:25.853Z,22.83
2018-05-16T16:16:54.927Z,22.80
2018-05-16T16:19:23.952Z,23.40
2018-05-16T16:21:53.264Z,22.40
2018-05-16T16:24:22.214Z,24.37
2018-05-16T16:26:51.198Z,23.90
2018-05-16T16:29:20.146Z,24.00
2018-05-16T16:31:49.093Z,25.70
2018-05-16T16:34:18.397Z,24.47
2018-05-16T16:36:48.470Z,23.90
2018-05-16T16:39:17.459Z,21.93
2018-05-16T16:41:46.411Z,23.53
2018-05-16T16:44:15.385Z,23.23
2018-05-16T16:46:44.371Z,24.17
2018-05-16T16:49:13.326Z,24.40
2018-05-16T16:51:42.370Z,23.93
2018-05-16T16:54:11.330Z,23.40
2018-05-16T16:56:40.273Z,24.67
2018-05-16T16:59:09.244Z,26.80
2018-05-16T17:01:38.211Z,25.50
2018-05-16T17:04:07.207Z,27.07
2018-05-16T17:06:36.151Z,25.97
2018-05-16T17:09:05.126Z,27.30
2018-05-16T17:11:34.069Z,28.23
2018-05-16T17:14:03.129Z,27.60
2018-05-16T17:16:32.099Z,28.07
2018-05-16T17:19:01.109Z,28.90
2018-05-16T17:21:30.299Z,28.97
2018-05-16T17:23:59.940Z,28.67
2018-05-16T17:26:28.898Z,29.90
2018-05-16T17:28:58.041Z,28.97
2018-05-16T17:31:27.214Z,28.00
2018-05-16T17:33:56.177Z,29.30
2018-05-16T17:36:25.142Z,30.87
2018-05-16T17:38:54.091Z,32.03
2018-05-16T17:41:23.082Z,35.67
2018-05-16T17:43:52.043Z,35.60
2018-05-16T17:46:20.985Z,35.17
2018-05-16T17:48:50.634Z,32.67
2018-05-16T17:51:19.613Z,30.70
2018-05-16T17:53:48.664Z,26.10
2018-05-16T17:56:17.603Z,29.27
2018-05-16T17:58:46.557Z,27.83
2018-05-16T18:01:15.638Z,27.27
2018-05-16T18:03:44.637Z,29.00
2018-05-16T18:06:13.636Z,26.57
2018-05-16T18:08:42.584Z,25.90
2018-05-16T18:11:11.546Z,26.93
2018-05-16T18:13:55.373Z,27.37
2018-05-16T18:16:30.101Z,27.37
2018-05-16T18:18:59.163Z,29.27
2018-05-16T18:21:28.253Z,31.73
2018-05-16T18:23:57.207Z,30.80
2018-05-16T18:26:26.167Z,28.53
2018-05-16T18:28:55.123Z,27.67
2018-05-16T18:31:24.079Z,28.37
2018-05-16T18:33:53.072Z,27.07
2018-05-16T18:36:22.040Z,28.00
2018-05-16T18:38:50.994Z,28.57
2018-05-16T18:41:20.055Z,29.43
2018-05-16T18:43:49.007Z,29.67
2018-05-16T18:46:17.993Z,32.97
2018-05-16T18:48:46.956Z,29.73
2018-05-16T18:51:16.356Z,31.40
2018-05-16T18:53:45.302Z,33.80
2018-05-16T18:56:14.266Z,33.73
2018-05-16T18:58:43.317Z,33.13
2018-05-16T19:01:12.738Z,38.23
2018-05-16T19:03:41.677Z,33.20
2018-05-16T19:06:10.723Z,36.00
2018-05-16T19:08:39.711Z,35.47
2018-05-16T19:11:08.711Z,36.67
2018-05-16T19:13:37.667Z,38.60
2018-05-16T19:16:06.655Z,38.17
2018-05-16T19:18:35.981Z,39.73
2018-05-16T19:21:04.955Z,40.30
2018-05-16T19:23:34.337Z,44.40
2018-05-16T19:26:03.292Z,43.73
2018-05-16T19:28:32.230Z,44.30
2018-05-16T19:31:01.179Z,43.80
2018-05-16T19:33:30.209Z,44.67
2018-05-16T19:35:59.309Z,38.40
2018-05-16T19:38:28.257Z,36.83
2018-05-16T19:40:57.338Z,35.07
2018-05-16T19:43:26.307Z,35.03
2018-05-16T19:45:55.261Z,31.17
2018-05-16T19:48:24.310Z,32.40
2018-05-16T19:50:53.289Z,29.23
2018-05-16T19:53:22.240Z,29.40
2018-05-16T19:55:51.181Z,28.03
2018-05-16T19:58:20.214Z,32.07
2018-05-16T20:00:49.212Z,28.40
2018-05-16T20:03:18.213Z,31.73
2018-05-16T20:05:47.191Z,33.53
2018-05-16T20:08:16.137Z,32.17
2018-05-16T20:10:45.081Z,32.63
2018-05-16T20:13:14.165Z,31.63
2018-05-16T20:15:43.184Z,34.40
2018-05-16T20:18:12.142Z,34.30
2018-05-16T20:20:41.100Z,34.27
2018-05-16T20:23:10.060Z,39.33
2018-05-16T20:25:39.159Z,42.30
2018-05-16T20:28:08.105Z,50.47
2018-05-16T20:30:37.150Z,51.20
2018-05-16T20:33:06.098Z,51.73
2018-05-16T20:35:35.056Z,50.93
2018-05-16T20:38:04.062Z,51.83
2018-05-16T20:40:33.009Z,51.67
2018-05-16T20:43:01.966Z,50.40
2018-05-16T20:45:30.939Z,48.37
2018-05-16T20:47:59.883Z,49.27
2018-05-16T20:50:28.890Z,49.53
2018-05-16T20:52:58.554Z,49.03
2018-05-16T20:55:27.507Z,47.90
2018-05-16T20:57:56.458Z,51.27
2018-05-16T21:00:25.414Z,47.97
2018-05-16T21:02:54.406Z,49.30
2018-05-16T21:05:25.130Z,50.97
2018-05-16T21:07:54.509Z,46.53
2018-05-16T21:10:23.671Z,49.73
2018-05-16T21:12:52.677Z,51.53
2018-05-16T21:15:21.708Z,54.57
2018-05-16T21:17:50.732Z,57.60
2018-05-16T21:23:20.775Z,62.90
2018-05-16T21:25:49.813Z,66.77
2018-05-16T21:28:19.701Z,66.67
2018-05-16T21:30:48.678Z,64.67
2018-05-16T21:33:17.660Z,74.17
2018-05-16T21:35:46.692Z,76.20
2018-05-16T21:38:15.729Z,71.50
2018-05-16T21:40:44.746Z,73.53
2018-05-16T21:43:13.737Z,77.10
2018-05-16T21:45:42.779Z,67.27
2018-05-16T21:48:11.780Z,67.30
2018-05-16T21:50:40.943Z,60.70
2018-05-16T21:53:10.038Z,59.63
2018-05-16T21:55:39.046Z,57.03
2018-05-16T21:58:08.041Z,56.07
2018-05-16T22:00:37.014Z,49.90
2018-05-16T22:03:06.062Z,48.40
2018-05-16T22:05:35.026Z,47.17
2018-05-16T22:08:04.025Z,42.83
2018-05-16T22:10:33.148Z,46.73
2018-05-16T22:13:02.121Z,47.13
2018-05-16T22:15:31.269Z,41.67
2018-05-16T22:18:00.488Z,39.77
2018-05-16T22:23:06.762Z,31.47
2018-05-16T22:25:35.931Z,21.73
2018-05-16T22:28:05.125Z,24.07
2018-05-16T22:30:39.915Z,20.80
2018-05-16T22:33:14.593Z,20.43
2018-05-16T22:35:49.365Z,20.63
2018-05-16T22:38:24.081Z,20.23
2018-05-16T22:40:58.736Z,19.67
2018-05-16T22:43:27.787Z,21.37
2018-05-16T22:45:57.721Z,22.40
2018-05-16T22:48:26.698Z,24.97
2018-05-16T22:50:55.717Z,24.50
2018-05-16T22:53:24.671Z,22.30
2018-05-16T22:55:53.831Z,24.37
2018-05-16T22:58:22.853Z,25.53
2018-05-16T23:00:51.893Z,23.30
2018-05-16T23:03:20.901Z,24.17
2018-05-16T23:05:49.905Z,25.77
2018-05-16T23:08:18.931Z,28.37
2018-05-16T23:10:47.937Z,24.87
2018-05-16T23:13:16.920Z,25.57
2018-05-16T23:15:45.885Z,25.97
2018-05-16T23:18:14.880Z,22.57
2018-05-16T23:20:43.907Z,22.73
2018-05-16T23:23:12.897Z,20.73
2018-05-16T23:25:41.878Z,20.07
2018-05-16T23:28:10.882Z,20.57
2018-05-16T23:30:39.868Z,20.93
2018-05-16T23:33:08.905Z,20.57
2018-05-16T23:35:37.868Z,21.97
2018-05-16T23:38:06.843Z,22.30
2018-05-16T23:40:35.802Z,21.90
2018-05-16T23:43:04.813Z,22.57
2018-05-16T23:45:33.825Z,21.33
2018-05-16T23:48:02.788Z,23.17
2018-05-16T23:50:31.759Z,22.63
2018-05-16T23:53:00.731Z,21.80
2018-05-16T23:55:29.715Z,22.27
2018-05-16T23:57:58.730Z,21.27
